sensor_id;sensor_type;location;lat;lon;timestamp;P1;durP1;ratioP1;P2;durP2;ratioP2
68353;SDS011;55274;43.060;25.618;2023-10-31T00:01:49;14.25;;;5.20;;
68353;SDS011;55274;43.060;25.618;2023-10-31T00:04:15;12.35;;;5.45;;
68353;SDS011;55274;43.060;25.618;2023-10-31T00:06:41;12.25;;;4.95;;
68353;SDS011;55274;43.060;25.618;2023-10-31T00:09:06;10.35;;;5.10;;
68353;SDS011;55274;43.060;25.618;2023-10-31T00:11:33;11.18;;;4.80;;
68353;SDS011;55274;43.060;25.618;2023-10-31T00:13:59;8.25;;;4.47;;
68353;SDS011;55274;43.060;25.618;2023-10-31T00:16:25;13.85;;;4.78;;
68353;SDS011;55274;43.060;25.618;2023-10-31T00:18:50;10.88;;;5.00;;
68353;SDS011;55274;43.060;25.618;2023-10-31T00:21:16;10.73;;;4.65;;
68353;SDS011;55274;43.060;25.618;2023-10-31T00:23:43;15.38;;;4.78;;
68353;SDS011;55274;43.060;25.618;2023-10-31T00:26:12;8.70;;;4.95;;
68353;SDS011;55274;43.060;25.618;2023-10-31T00:28:38;12.35;;;4.72;;
68353;SDS011;55274;43.060;25.618;2023-10-31T00:31:04;10.07;;;4.85;;
68353;SDS011;55274;43.060;25.618;2023-10-31T00:33:31;17.85;;;5.20;;
68353;SDS011;55274;43.060;25.618;2023-10-31T00:35:57;16.65;;;5.03;;
68353;SDS011;55274;43.060;25.618;2023-10-31T00:38:23;24.60;;;6.20;;
68353;SDS011;55274;43.060;25.618;2023-10-31T00:40:49;13.10;;;6.18;;
68353;SDS011;55274;43.060;25.618;2023-10-31T00:43:14;11.52;;;5.35;;
68353;SDS011;55274;43.060;25.618;2023-10-31T00:45:40;12.30;;;4.97;;
68353;SDS011;55274;43.060;25.618;2023-10-31T00:48:06;10.23;;;5.15;;
68353;SDS011;55274;43.060;25.618;2023-10-31T00:50:32;12.40;;;5.53;;
68353;SDS011;55274;43.060;25.618;2023-10-31T00:52:58;9.63;;;4.95;;
68353;SDS011;55274;43.060;25.618;2023-10-31T00:55:23;25.75;;;5.88;;
68353;SDS011;55274;43.060;25.618;2023-10-31T00:57:50;13.63;;;5.32;;
68353;SDS011;55274;43.060;25.618;2023-10-31T01:00:15;14.18;;;5.25;;
68353;SDS011;55274;43.060;25.618;2023-10-31T01:02:42;10.80;;;4.60;;
68353;SDS011;55274;43.060;25.618;2023-10-31T01:05:07;9.10;;;4.78;;
68353;SDS011;55274;43.060;25.618;2023-10-31T01:07:34;9.82;;;5.90;;
68353;SDS011;55274;43.060;25.618;2023-10-31T01:10:00;9.60;;;5.38;;
68353;SDS011;55274;43.060;25.618;2023-10-31T01:12:26;12.38;;;5.30;;
68353;SDS011;55274;43.060;25.618;2023-10-31T01:14:53;14.55;;;5.60;;
68353;SDS011;55274;43.060;25.618;2023-10-31T01:17:20;13.10;;;5.45;;
68353;SDS011;55274;43.060;25.618;2023-10-31T01:19:46;14.52;;;5.82;;
68353;SDS011;55274;43.060;25.618;2023-10-31T01:22:12;15.38;;;6.88;;
68353;SDS011;55274;43.060;25.618;2023-10-31T01:24:37;17.98;;;6.55;;
68353;SDS011;55274;43.060;25.618;2023-10-31T01:27:03;19.55;;;7.18;;
68353;SDS011;55274;43.060;25.618;2023-10-31T01:29:29;15.15;;;6.10;;
68353;SDS011;55274;43.060;25.618;2023-10-31T01:31:55;10.50;;;5.57;;
68353;SDS011;55274;43.060;25.618;2023-10-31T01:34:21;11.20;;;6.80;;
68353;SDS011;55274;43.060;25.618;2023-10-31T01:36:47;15.85;;;7.68;;
68353;SDS011;55274;43.060;25.618;2023-10-31T01:39:13;19.85;;;8.15;;
68353;SDS011;55274;43.060;25.618;2023-10-31T01:41:42;18.80;;;7.75;;
68353;SDS011;55274;43.060;25.618;2023-10-31T01:44:08;13.82;;;6.72;;
68353;SDS011;55274;43.060;25.618;2023-10-31T01:46:34;13.88;;;6.95;;
68353;SDS011;55274;43.060;25.618;2023-10-31T01:49:00;12.02;;;6.63;;
68353;SDS011;55274;43.060;25.618;2023-10-31T01:51:26;11.57;;;6.15;;
68353;SDS011;55274;43.060;25.618;2023-10-31T01:53:53;13.30;;;5.63;;
68353;SDS011;55274;43.060;25.618;2023-10-31T01:56:20;13.43;;;6.13;;
68353;SDS011;55274;43.060;25.618;2023-10-31T01:58:47;8.77;;;5.43;;
68353;SDS011;55274;43.060;25.618;2023-10-31T02:01:14;10.90;;;5.22;;
68353;SDS011;55274;43.060;25.618;2023-10-31T02:03:40;11.52;;;4.75;;
68353;SDS011;55274;43.060;25.618;2023-10-31T02:06:06;12.40;;;5.38;;
68353;SDS011;55274;43.060;25.618;2023-10-31T02:08:32;9.57;;;5.43;;
68353;SDS011;55274;43.060;25.618;2023-10-31T02:10:58;24.92;;;6.32;;
68353;SDS011;55274;43.060;25.618;2023-10-31T02:13:24;10.82;;;4.55;;
68353;SDS011;55274;43.060;25.618;2023-10-31T02:15:50;9.45;;;4.90;;
68353;SDS011;55274;43.060;25.618;2023-10-31T02:18:16;10.13;;;4.50;;
68353;SDS011;55274;43.060;25.618;2023-10-31T02:20:42;9.52;;;4.55;;
68353;SDS011;55274;43.060;25.618;2023-10-31T02:23:08;10.52;;;4.68;;
68353;SDS011;55274;43.060;25.618;2023-10-31T02:25:34;10.82;;;4.47;;
68353;SDS011;55274;43.060;25.618;2023-10-31T02:28:00;7.03;;;4.05;;
68353;SDS011;55274;43.060;25.618;2023-10-31T02:30:26;9.02;;;4.53;;
68353;SDS011;55274;43.060;25.618;2023-10-31T02:32:52;9.10;;;4.50;;
68353;SDS011;55274;43.060;25.618;2023-10-31T02:35:19;9.23;;;4.18;;
68353;SDS011;55274;43.060;25.618;2023-10-31T02:37:47;9.45;;;4.38;;
68353;SDS011;55274;43.060;25.618;2023-10-31T02:40:14;9.38;;;4.30;;
68353;SDS011;55274;43.060;25.618;2023-10-31T02:42:40;8.68;;;4.60;;
68353;SDS011;55274;43.060;25.618;2023-10-31T02:45:06;9.30;;;4.50;;
68353;SDS011;55274;43.060;25.618;2023-10-31T02:47:33;9.65;;;4.35;;
68353;SDS011;55274;43.060;25.618;2023-10-31T02:49:58;10.00;;;4.65;;
68353;SDS011;55274;43.060;25.618;2023-10-31T02:52:24;9.48;;;4.97;;
68353;SDS011;55274;43.060;25.618;2023-10-31T02:54:50;10.00;;;4.60;;
68353;SDS011;55274;43.060;25.618;2023-10-31T02:57:16;15.13;;;5.20;;
68353;SDS011;55274;43.060;25.618;2023-10-31T02:59:42;7.30;;;4.70;;
68353;SDS011;55274;43.060;25.618;2023-10-31T03:02:08;13.82;;;5.95;;
68353;SDS011;55274;43.060;25.618;2023-10-31T03:04:33;24.42;;;6.32;;
68353;SDS011;55274;43.060;25.618;2023-10-31T03:06:59;15.25;;;4.90;;
68353;SDS011;55274;43.060;25.618;2023-10-31T03:09:25;108.80;;;12.45;;
68353;SDS011;55274;43.060;25.618;2023-10-31T03:11:51;20.10;;;6.30;;
68353;SDS011;55274;43.060;25.618;2023-10-31T03:14:17;18.05;;;6.57;;
68353;SDS011;55274;43.060;25.618;2023-10-31T03:16:43;16.83;;;6.18;;
68353;SDS011;55274;43.060;25.618;2023-10-31T03:19:09;16.65;;;7.07;;
68353;SDS011;55274;43.060;25.618;2023-10-31T03:21:35;18.52;;;6.70;;
68353;SDS011;55274;43.060;25.618;2023-10-31T03:24:00;17.60;;;6.07;;
68353;SDS011;55274;43.060;25.618;2023-10-31T03:26:26;11.02;;;5.30;;
68353;SDS011;55274;43.060;25.618;2023-10-31T03:28:52;23.05;;;6.63;;
68353;SDS011;55274;43.060;25.618;2023-10-31T03:31:22;49.83;;;7.60;;
68353;SDS011;55274;43.060;25.618;2023-10-31T03:33:48;46.33;;;7.45;;
68353;SDS011;55274;43.060;25.618;2023-10-31T03:36:14;28.52;;;6.45;;
68353;SDS011;55274;43.060;25.618;2023-10-31T03:38:40;32.95;;;7.03;;
68353;SDS011;55274;43.060;25.618;2023-10-31T03:41:05;20.83;;;7.43;;
68353;SDS011;55274;43.060;25.618;2023-10-31T03:43:31;105.35;;;12.40;;
68353;SDS011;55274;43.060;25.618;2023-10-31T03:45:57;47.38;;;8.90;;
68353;SDS011;55274;43.060;25.618;2023-10-31T03:48:23;31.67;;;7.72;;
68353;SDS011;55274;43.060;25.618;2023-10-31T03:50:48;206.13;;;19.23;;
68353;SDS011;55274;43.060;25.618;2023-10-31T03:53:15;53.78;;;8.93;;
68353;SDS011;55274;43.060;25.618;2023-10-31T03:55:41;18.38;;;7.13;;
68353;SDS011;55274;43.060;25.618;2023-10-31T03:58:07;17.80;;;6.75;;
68353;SDS011;55274;43.060;25.618;2023-10-31T04:00:33;20.50;;;6.88;;
68353;SDS011;55274;43.060;25.618;2023-10-31T04:02:58;18.58;;;8.32;;
68353;SDS011;55274;43.060;25.618;2023-10-31T04:05:24;15.52;;;6.93;;
68353;SDS011;55274;43.060;25.618;2023-10-31T04:07:50;13.60;;;6.72;;
68353;SDS011;55274;43.060;25.618;2023-10-31T04:10:17;96.25;;;12.35;;
68353;SDS011;55274;43.060;25.618;2023-10-31T04:12:44;74.72;;;9.27;;
68353;SDS011;55274;43.060;25.618;2023-10-31T04:15:09;63.67;;;9.52;;
68353;SDS011;55274;43.060;25.618;2023-10-31T04:17:35;84.55;;;11.48;;
68353;SDS011;55274;43.060;25.618;2023-10-31T04:20:02;36.45;;;9.73;;
68353;SDS011;55274;43.060;25.618;2023-10-31T04:22:28;24.73;;;7.30;;
68353;SDS011;55274;43.060;25.618;2023-10-31T04:24:54;36.72;;;8.30;;
68353;SDS011;55274;43.060;25.618;2023-10-31T04:27:20;28.15;;;8.20;;
68353;SDS011;55274;43.060;25.618;2023-10-31T04:29:46;37.80;;;9.15;;
68353;SDS011;55274;43.060;25.618;2023-10-31T04:32:11;22.02;;;7.05;;
68353;SDS011;55274;43.060;25.618;2023-10-31T04:34:37;64.13;;;9.32;;
68353;SDS011;55274;43.060;25.618;2023-10-31T04:37:03;167.27;;;17.75;;
68353;SDS011;55274;43.060;25.618;2023-10-31T04:39:29;23.23;;;6.60;;
68353;SDS011;55274;43.060;25.618;2023-10-31T04:41:55;17.50;;;6.45;;
68353;SDS011;55274;43.060;25.618;2023-10-31T04:44:20;16.05;;;6.00;;
68353;SDS011;55274;43.060;25.618;2023-10-31T04:46:46;19.60;;;6.97;;
68353;SDS011;55274;43.060;25.618;2023-10-31T04:49:12;36.40;;;8.07;;
68353;SDS011;55274;43.060;25.618;2023-10-31T04:51:38;104.35;;;12.00;;
68353;SDS011;55274;43.060;25.618;2023-10-31T04:54:04;41.60;;;7.20;;
68353;SDS011;55274;43.060;25.618;2023-10-31T04:56:30;24.42;;;7.10;;
68353;SDS011;55274;43.060;25.618;2023-10-31T04:58:56;29.70;;;7.60;;
68353;SDS011;55274;43.060;25.618;2023-10-31T05:01:22;20.80;;;7.15;;
68353;SDS011;55274;43.060;25.618;2023-10-31T05:03:49;17.00;;;7.07;;
68353;SDS011;55274;43.060;25.618;2023-10-31T05:06:18;18.58;;;6.80;;
68353;SDS011;55274;43.060;25.618;2023-10-31T05:08:45;13.48;;;6.03;;
68353;SDS011;55274;43.060;25.618;2023-10-31T05:11:10;24.45;;;6.85;;
68353;SDS011;55274;43.060;25.618;2023-10-31T05:13:37;22.00;;;7.03;;
68353;SDS011;55274;43.060;25.618;2023-10-31T05:16:03;54.92;;;8.52;;
68353;SDS011;55274;43.060;25.618;2023-10-31T05:18:29;34.28;;;8.98;;
68353;SDS011;55274;43.060;25.618;2023-10-31T05:20:55;19.48;;;7.32;;
68353;SDS011;55274;43.060;25.618;2023-10-31T05:23:21;35.50;;;7.90;;
68353;SDS011;55274;43.060;25.618;2023-10-31T05:25:47;14.82;;;6.22;;
68353;SDS011;55274;43.060;25.618;2023-10-31T05:28:13;29.20;;;7.70;;
68353;SDS011;55274;43.060;25.618;2023-10-31T05:30:38;16.85;;;6.32;;
68353;SDS011;55274;43.060;25.618;2023-10-31T05:33:04;23.92;;;7.00;;
68353;SDS011;55274;43.060;25.618;2023-10-31T05:35:30;32.92;;;6.88;;
68353;SDS011;55274;43.060;25.618;2023-10-31T05:37:56;29.65;;;8.23;;
68353;SDS011;55274;43.060;25.618;2023-10-31T05:40:22;24.98;;;7.70;;
68353;SDS011;55274;43.060;25.618;2023-10-31T05:42:50;23.70;;;7.70;;
68353;SDS011;55274;43.060;25.618;2023-10-31T05:45:16;33.40;;;8.57;;
68353;SDS011;55274;43.060;25.618;2023-10-31T05:47:41;56.55;;;9.52;;
68353;SDS011;55274;43.060;25.618;2023-10-31T05:50:07;18.35;;;8.48;;
68353;SDS011;55274;43.060;25.618;2023-10-31T05:52:33;30.10;;;9.00;;
68353;SDS011;55274;43.060;25.618;2023-10-31T05:54:59;20.50;;;8.25;;
68353;SDS011;55274;43.060;25.618;2023-10-31T05:57:25;57.17;;;10.18;;
68353;SDS011;55274;43.060;25.618;2023-10-31T05:59:51;33.60;;;10.00;;
68353;SDS011;55274;43.060;25.618;2023-10-31T06:02:17;40.13;;;9.93;;
68353;SDS011;55274;43.060;25.618;2023-10-31T06:04:43;43.78;;;11.45;;
68353;SDS011;55274;43.060;25.618;2023-10-31T06:07:10;29.25;;;10.38;;
68353;SDS011;55274;43.060;25.618;2023-10-31T06:09:36;50.35;;;12.18;;
68353;SDS011;55274;43.060;25.618;2023-10-31T06:12:02;36.95;;;11.15;;
68353;SDS011;55274;43.060;25.618;2023-10-31T06:14:28;45.85;;;10.63;;
68353;SDS011;55274;43.060;25.618;2023-10-31T06:16:54;33.72;;;10.40;;
68353;SDS011;55274;43.060;25.618;2023-10-31T06:19:21;38.33;;;10.48;;
68353;SDS011;55274;43.060;25.618;2023-10-31T06:21:47;37.63;;;11.68;;
68353;SDS011;55274;43.060;25.618;2023-10-31T06:24:13;34.80;;;11.13;;
68353;SDS011;55274;43.060;25.618;2023-10-31T06:26:39;39.25;;;11.15;;
68353;SDS011;55274;43.060;25.618;2023-10-31T06:29:05;47.67;;;11.35;;
68353;SDS011;55274;43.060;25.618;2023-10-31T06:31:31;49.13;;;13.35;;
68353;SDS011;55274;43.060;25.618;2023-10-31T06:33:56;35.47;;;11.50;;
68353;SDS011;55274;43.060;25.618;2023-10-31T06:36:22;39.28;;;12.15;;
68353;SDS011;55274;43.060;25.618;2023-10-31T06:38:48;34.10;;;10.93;;
68353;SDS011;55274;43.060;25.618;2023-10-31T06:41:15;43.63;;;14.13;;
68353;SDS011;55274;43.060;25.618;2023-10-31T06:43:41;42.50;;;15.02;;
68353;SDS011;55274;43.060;25.618;2023-10-31T06:46:06;49.17;;;16.42;;
68353;SDS011;55274;43.060;25.618;2023-10-31T06:48:32;75.90;;;19.73;;
68353;SDS011;55274;43.060;25.618;2023-10-31T06:50:59;62.05;;;18.38;;
68353;SDS011;55274;43.060;25.618;2023-10-31T06:53:24;68.47;;;16.38;;
68353;SDS011;55274;43.060;25.618;2023-10-31T06:55:50;60.67;;;19.30;;
68353;SDS011;55274;43.060;25.618;2023-10-31T06:58:16;63.97;;;21.42;;
68353;SDS011;55274;43.060;25.618;2023-10-31T07:00:42;37.20;;;15.95;;
68353;SDS011;55274;43.060;25.618;2023-10-31T07:03:08;48.38;;;21.95;;
68353;SDS011;55274;43.060;25.618;2023-10-31T07:05:36;52.28;;;19.88;;
68353;SDS011;55274;43.060;25.618;2023-10-31T07:08:03;57.65;;;20.98;;
68353;SDS011;55274;43.060;25.618;2023-10-31T07:10:29;59.00;;;22.88;;
68353;SDS011;55274;43.060;25.618;2023-10-31T07:12:55;40.13;;;20.45;;
68353;SDS011;55274;43.060;25.618;2023-10-31T07:15:23;48.03;;;21.60;;
68353;SDS011;55274;43.060;25.618;2023-10-31T07:17:49;43.65;;;18.63;;
68353;SDS011;55274;43.060;25.618;2023-10-31T07:20:15;29.20;;;13.27;;
68353;SDS011;55274;43.060;25.618;2023-10-31T07:22:42;29.00;;;14.57;;
68353;SDS011;55274;43.060;25.618;2023-10-31T07:25:08;26.92;;;12.90;;
68353;SDS011;55274;43.060;25.618;2023-10-31T07:27:34;18.90;;;8.38;;
68353;SDS011;55274;43.060;25.618;2023-10-31T07:29:59;21.38;;;10.98;;
68353;SDS011;55274;43.060;25.618;2023-10-31T07:32:25;13.05;;;6.68;;
68353;SDS011;55274;43.060;25.618;2023-10-31T07:34:51;15.18;;;6.50;;
68353;SDS011;55274;43.060;25.618;2023-10-31T07:37:17;8.77;;;4.93;;
68353;SDS011;55274;43.060;25.618;2023-10-31T07:39:43;7.53;;;3.85;;
68353;SDS011;55274;43.060;25.618;2023-10-31T07:42:09;28.92;;;9.13;;
68353;SDS011;55274;43.060;25.618;2023-10-31T07:44:35;30.42;;;10.15;;
68353;SDS011;55274;43.060;25.618;2023-10-31T07:47:00;14.43;;;7.82;;
68353;SDS011;55274;43.060;25.618;2023-10-31T07:49:26;10.10;;;7.30;;
68353;SDS011;55274;43.060;25.618;2023-10-31T07:51:52;13.90;;;7.20;;
68353;SDS011;55274;43.060;25.618;2023-10-31T07:54:18;13.80;;;6.57;;
68353;SDS011;55274;43.060;25.618;2023-10-31T07:56:44;15.73;;;7.30;;
68353;SDS011;55274;43.060;25.618;2023-10-31T07:59:10;18.67;;;9.88;;
68353;SDS011;55274;43.060;25.618;2023-10-31T08:01:36;15.13;;;9.02;;
68353;SDS011;55274;43.060;25.618;2023-10-31T08:04:02;28.42;;;11.70;;
68353;SDS011;55274;43.060;25.618;2023-10-31T08:06:28;32.42;;;11.00;;
68353;SDS011;55274;43.060;25.618;2023-10-31T08:08:54;45.10;;;13.40;;
68353;SDS011;55274;43.060;25.618;2023-10-31T08:11:20;24.95;;;13.45;;
68353;SDS011;55274;43.060;25.618;2023-10-31T08:13:46;42.08;;;14.82;;
68353;SDS011;55274;43.060;25.618;2023-10-31T08:16:16;44.15;;;23.67;;
68353;SDS011;55274;43.060;25.618;2023-10-31T08:18:45;34.83;;;20.27;;
68353;SDS011;55274;43.060;25.618;2023-10-31T08:21:11;24.00;;;14.38;;
68353;SDS011;55274;43.060;25.618;2023-10-31T08:23:38;24.55;;;12.75;;
68353;SDS011;55274;43.060;25.618;2023-10-31T08:26:03;22.77;;;14.65;;
68353;SDS011;55274;43.060;25.618;2023-10-31T08:28:29;24.80;;;14.35;;
68353;SDS011;55274;43.060;25.618;2023-10-31T08:30:56;31.98;;;13.20;;
68353;SDS011;55274;43.060;25.618;2023-10-31T08:33:22;20.45;;;9.13;;
68353;SDS011;55274;43.060;25.618;2023-10-31T08:35:48;29.25;;;8.20;;
68353;SDS011;55274;43.060;25.618;2023-10-31T08:38:14;19.48;;;8.43;;
68353;SDS011;55274;43.060;25.618;2023-10-31T08:40:40;17.98;;;8.60;;
68353;SDS011;55274;43.060;25.618;2023-10-31T08:43:06;21.65;;;8.48;;
68353;SDS011;55274;43.060;25.618;2023-10-31T08:45:33;22.92;;;7.72;;
68353;SDS011;55274;43.060;25.618;2023-10-31T08:47:59;29.55;;;10.05;;
68353;SDS011;55274;43.060;25.618;2023-10-31T08:50:25;47.50;;;12.20;;
68353;SDS011;55274;43.060;25.618;2023-10-31T08:52:51;23.23;;;7.18;;
68353;SDS011;55274;43.060;25.618;2023-10-31T08:55:18;27.33;;;8.85;;
68353;SDS011;55274;43.060;25.618;2023-10-31T08:57:43;36.58;;;9.30;;
68353;SDS011;55274;43.060;25.618;2023-10-31T09:00:09;18.02;;;6.90;;
68353;SDS011;55274;43.060;25.618;2023-10-31T09:02:35;45.63;;;8.40;;
68353;SDS011;55274;43.060;25.618;2023-10-31T09:05:01;35.50;;;6.07;;
68353;SDS011;55274;43.060;25.618;2023-10-31T09:07:27;22.95;;;5.45;;
68353;SDS011;55274;43.060;25.618;2023-10-31T09:09:53;15.02;;;5.20;;
68353;SDS011;55274;43.060;25.618;2023-10-31T09:12:19;19.52;;;5.38;;
68353;SDS011;55274;43.060;25.618;2023-10-31T09:14:45;32.03;;;5.72;;
68353;SDS011;55274;43.060;25.618;2023-10-31T09:17:11;16.73;;;4.22;;
68353;SDS011;55274;43.060;25.618;2023-10-31T09:19:37;18.15;;;4.10;;
68353;SDS011;55274;43.060;25.618;2023-10-31T09:22:04;22.02;;;3.90;;
68353;SDS011;55274;43.060;25.618;2023-10-31T09:24:30;15.27;;;2.47;;
68353;SDS011;55274;43.060;25.618;2023-10-31T09:26:55;9.60;;;1.90;;
68353;SDS011;55274;43.060;25.618;2023-10-31T09:29:21;14.10;;;1.83;;
68353;SDS011;55274;43.060;25.618;2023-10-31T09:31:47;16.52;;;2.00;;
68353;SDS011;55274;43.060;25.618;2023-10-31T09:34:13;27.42;;;2.38;;
68353;SDS011;55274;43.060;25.618;2023-10-31T09:36:39;16.83;;;1.92;;
68353;SDS011;55274;43.060;25.618;2023-10-31T09:39:05;57.80;;;3.95;;
68353;SDS011;55274;43.060;25.618;2023-10-31T09:41:31;12.52;;;1.60;;
68353;SDS011;55274;43.060;25.618;2023-10-31T09:43:59;24.17;;;2.10;;
68353;SDS011;55274;43.060;25.618;2023-10-31T09:46:26;22.98;;;2.28;;
68353;SDS011;55274;43.060;25.618;2023-10-31T09:48:53;5.57;;;1.08;;
68353;SDS011;55274;43.060;25.618;2023-10-31T09:51:20;5.90;;;0.90;;
68353;SDS011;55274;43.060;25.618;2023-10-31T09:53:46;21.00;;;1.80;;
68353;SDS011;55274;43.060;25.618;2023-10-31T09:56:13;8.05;;;1.38;;
68353;SDS011;55274;43.060;25.618;2023-10-31T09:58:42;9.05;;;1.17;;
68353;SDS011;55274;43.060;25.618;2023-10-31T10:01:08;4.80;;;1.17;;
68353;SDS011;55274;43.060;25.618;2023-10-31T10:03:36;14.27;;;1.92;;
68353;SDS011;55274;43.060;25.618;2023-10-31T10:06:02;6.32;;;0.95;;
68353;SDS011;55274;43.060;25.618;2023-10-31T10:08:28;13.50;;;2.05;;
68353;SDS011;55274;43.060;25.618;2023-10-31T10:10:54;5.05;;;1.05;;
68353;SDS011;55274;43.060;25.618;2023-10-31T10:13:20;23.17;;;2.47;;
68353;SDS011;55274;43.060;25.618;2023-10-31T10:15:47;16.00;;;2.05;;
68353;SDS011;55274;43.060;25.618;2023-10-31T10:18:33;40.15;;;2.55;;
68353;SDS011;55274;43.060;25.618;2023-10-31T10:21:05;9.65;;;1.67;;
68353;SDS011;55274;43.060;25.618;2023-10-31T10:23:31;3.35;;;1.52;;
68353;SDS011;55274;43.060;25.618;2023-10-31T10:25:58;12.50;;;1.35;;
68353;SDS011;55274;43.060;25.618;2023-10-31T10:28:25;6.25;;;1.60;;
68353;SDS011;55274;43.060;25.618;2023-10-31T10:30:54;10.02;;;1.20;;
68353;SDS011;55274;43.060;25.618;2023-10-31T10:33:20;17.67;;;1.73;;
68353;SDS011;55274;43.060;25.618;2023-10-31T10:35:47;8.20;;;1.63;;
68353;SDS011;55274;43.060;25.618;2023-10-31T10:38:14;13.73;;;1.85;;
68353;SDS011;55274;43.060;25.618;2023-10-31T10:40:44;8.05;;;1.30;;
68353;SDS011;55274;43.060;25.618;2023-10-31T10:43:12;16.25;;;1.60;;
68353;SDS011;55274;43.060;25.618;2023-10-31T10:45:51;28.15;;;2.88;;
68353;SDS011;55274;43.060;25.618;2023-10-31T10:48:22;11.88;;;1.50;;
68353;SDS011;55274;43.060;25.618;2023-10-31T10:53:32;13.27;;;1.27;;
68353;SDS011;55274;43.060;25.618;2023-10-31T10:56:08;26.13;;;2.45;;
68353;SDS011;55274;43.060;25.618;2023-10-31T10:58:50;8.45;;;1.50;;
68353;SDS011;55274;43.060;25.618;2023-10-31T11:01:20;9.82;;;1.85;;
68353;SDS011;55274;43.060;25.618;2023-10-31T11:03:46;20.52;;;2.22;;
68353;SDS011;55274;43.060;25.618;2023-10-31T11:06:12;7.93;;;1.52;;
68353;SDS011;55274;43.060;25.618;2023-10-31T11:08:39;14.10;;;1.70;;
68353;SDS011;55274;43.060;25.618;2023-10-31T11:11:06;6.72;;;1.25;;
68353;SDS011;55274;43.060;25.618;2023-10-31T11:13:33;11.82;;;2.03;;
68353;SDS011;55274;43.060;25.618;2023-10-31T11:16:02;20.20;;;3.05;;
68353;SDS011;55274;43.060;25.618;2023-10-31T11:18:34;8.35;;;1.77;;
68353;SDS011;55274;43.060;25.618;2023-10-31T11:21:00;9.02;;;2.55;;
68353;SDS011;55274;43.060;25.618;2023-10-31T11:23:27;5.32;;;1.60;;
68353;SDS011;55274;43.060;25.618;2023-10-31T11:25:53;8.95;;;2.20;;
68353;SDS011;55274;43.060;25.618;2023-10-31T11:28:20;4.28;;;1.52;;
68353;SDS011;55274;43.060;25.618;2023-10-31T11:30:49;5.88;;;1.50;;
68353;SDS011;55274;43.060;25.618;2023-10-31T11:33:20;11.73;;;1.92;;
68353;SDS011;55274;43.060;25.618;2023-10-31T11:35:59;10.27;;;1.95;;
68353;SDS011;55274;43.060;25.618;2023-10-31T11:38:34;11.23;;;1.77;;
68353;SDS011;55274;43.060;25.618;2023-10-31T11:41:01;11.82;;;2.35;;
68353;SDS011;55274;43.060;25.618;2023-10-31T11:43:35;7.75;;;1.50;;
68353;SDS011;55274;43.060;25.618;2023-10-31T11:46:24;8.73;;;1.40;;
68353;SDS011;55274;43.060;25.618;2023-10-31T11:48:51;12.20;;;1.95;;
68353;SDS011;55274;43.060;25.618;2023-10-31T11:51:17;8.48;;;1.70;;
68353;SDS011;55274;43.060;25.618;2023-10-31T11:53:44;6.60;;;1.77;;
68353;SDS011;55274;43.060;25.618;2023-10-31T11:56:11;6.35;;;1.60;;
68353;SDS011;55274;43.060;25.618;2023-10-31T11:58:37;7.22;;;1.50;;
68353;SDS011;55274;43.060;25.618;2023-10-31T12:01:07;15.05;;;1.65;;
68353;SDS011;55274;43.060;25.618;2023-10-31T12:03:41;11.40;;;1.75;;
68353;SDS011;55274;43.060;25.618;2023-10-31T12:06:12;9.55;;;1.70;;
68353;SDS011;55274;43.060;25.618;2023-10-31T12:08:39;12.35;;;2.05;;
68353;SDS011;55274;43.060;25.618;2023-10-31T12:11:07;118.00;;;10.90;;
68353;SDS011;55274;43.060;25.618;2023-10-31T12:13:36;11.57;;;1.92;;
68353;SDS011;55274;43.060;25.618;2023-10-31T12:16:07;8.40;;;1.70;;
68353;SDS011;55274;43.060;25.618;2023-10-31T12:18:35;6.25;;;1.70;;
68353;SDS011;55274;43.060;25.618;2023-10-31T12:21:02;6.43;;;2.00;;
68353;SDS011;55274;43.060;25.618;2023-10-31T12:23:28;14.80;;;1.90;;
68353;SDS011;55274;43.060;25.618;2023-10-31T12:25:54;4.93;;;2.05;;
68353;SDS011;55274;43.060;25.618;2023-10-31T12:28:23;13.18;;;2.10;;
68353;SDS011;55274;43.060;25.618;2023-10-31T12:30:51;239.55;;;28.58;;
68353;SDS011;55274;43.060;25.618;2023-10-31T12:33:21;9.15;;;2.53;;
68353;SDS011;55274;43.060;25.618;2023-10-31T12:35:52;26.80;;;2.60;;
68353;SDS011;55274;43.060;25.618;2023-10-31T12:38:21;23.40;;;2.58;;
68353;SDS011;55274;43.060;25.618;2023-10-31T12:40:47;3.30;;;1.30;;
68353;SDS011;55274;43.060;25.618;2023-10-31T12:43:16;22.60;;;2.15;;
68353;SDS011;55274;43.060;25.618;2023-10-31T12:45:42;23.30;;;2.92;;
68353;SDS011;55274;43.060;25.618;2023-10-31T12:48:09;14.73;;;2.47;;
68353;SDS011;55274;43.060;25.618;2023-10-31T12:50:37;9.43;;;2.40;;
68353;SDS011;55274;43.060;25.618;2023-10-31T12:53:06;16.70;;;2.40;;
68353;SDS011;55274;43.060;25.618;2023-10-31T12:55:39;3.65;;;1.45;;
68353;SDS011;55274;43.060;25.618;2023-10-31T12:58:06;15.88;;;2.40;;
68353;SDS011;55274;43.060;25.618;2023-10-31T13:00:35;8.82;;;1.90;;
68353;SDS011;55274;43.060;25.618;2023-10-31T13:03:05;17.40;;;3.20;;
68353;SDS011;55274;43.060;25.618;2023-10-31T13:05:36;4.05;;;1.48;;
68353;SDS011;55274;43.060;25.618;2023-10-31T13:08:14;24.58;;;2.83;;
68353;SDS011;55274;43.060;25.618;2023-10-31T13:10:41;10.90;;;2.28;;
68353;SDS011;55274;43.060;25.618;2023-10-31T13:13:08;5.20;;;1.77;;
68353;SDS011;55274;43.060;25.618;2023-10-31T13:15:34;25.88;;;2.72;;
68353;SDS011;55274;43.060;25.618;2023-10-31T13:18:02;7.10;;;1.75;;
68353;SDS011;55274;43.060;25.618;2023-10-31T13:20:28;21.92;;;3.05;;
68353;SDS011;55274;43.060;25.618;2023-10-31T13:22:54;3.95;;;1.60;;
68353;SDS011;55274;43.060;25.618;2023-10-31T13:25:20;21.02;;;2.90;;
68353;SDS011;55274;43.060;25.618;2023-10-31T13:27:46;16.27;;;2.40;;
68353;SDS011;55274;43.060;25.618;2023-10-31T13:30:16;47.88;;;4.22;;
68353;SDS011;55274;43.060;25.618;2023-10-31T13:32:43;21.73;;;2.53;;
68353;SDS011;55274;43.060;25.618;2023-10-31T13:35:09;7.25;;;1.50;;
68353;SDS011;55274;43.060;25.618;2023-10-31T13:37:35;21.05;;;2.85;;
68353;SDS011;55274;43.060;25.618;2023-10-31T13:40:02;63.38;;;6.47;;
68353;SDS011;55274;43.060;25.618;2023-10-31T13:42:29;8.10;;;2.05;;
68353;SDS011;55274;43.060;25.618;2023-10-31T13:44:55;7.22;;;2.13;;
68353;SDS011;55274;43.060;25.618;2023-10-31T13:47:21;7.82;;;1.90;;
68353;SDS011;55274;43.060;25.618;2023-10-31T13:49:46;6.10;;;1.95;;
68353;SDS011;55274;43.060;25.618;2023-10-31T13:52:13;14.00;;;2.20;;
68353;SDS011;55274;43.060;25.618;2023-10-31T13:54:39;14.65;;;2.50;;
68353;SDS011;55274;43.060;25.618;2023-10-31T13:57:05;30.48;;;4.00;;
68353;SDS011;55274;43.060;25.618;2023-10-31T13:59:31;26.67;;;3.58;;
68353;SDS011;55274;43.060;25.618;2023-10-31T14:01:56;6.65;;;2.28;;
68353;SDS011;55274;43.060;25.618;2023-10-31T14:04:22;7.63;;;2.03;;
68353;SDS011;55274;43.060;25.618;2023-10-31T14:06:48;9.05;;;2.20;;
68353;SDS011;55274;43.060;25.618;2023-10-31T14:09:14;12.63;;;1.90;;
68353;SDS011;55274;43.060;25.618;2023-10-31T14:11:43;11.88;;;2.42;;
68353;SDS011;55274;43.060;25.618;2023-10-31T14:14:11;11.23;;;2.13;;
68353;SDS011;55274;43.060;25.618;2023-10-31T14:16:39;13.15;;;2.15;;
68353;SDS011;55274;43.060;25.618;2023-10-31T14:19:05;13.35;;;2.80;;
68353;SDS011;55274;43.060;25.618;2023-10-31T14:21:32;12.55;;;2.75;;